sensor_id;sensor_type;location;lat;lon;timestamp;P1;durP1;ratioP1;P2;durP2;ratioP2
9264;SDS011;4669;49.594;10.958;2022-12-18T00:02:59;69.70;;;39.33;;
9264;SDS011;4669;49.594;10.958;2022-12-18T00:08:02;66.63;;;41.00;;
9264;SDS011;4669;49.594;10.958;2022-12-18T00:13:04;74.43;;;40.10;;
9264;SDS011;4669;49.594;10.958;2022-12-18T00:18:07;65.63;;;38.40;;
9264;SDS011;4669;49.594;10.958;2022-12-18T00:23:10;68.80;;;39.10;;
9264;SDS011;4669;49.594;10.958;2022-12-18T00:28:12;71.40;;;41.30;;
9264;SDS011;4669;49.594;10.958;2022-12-18T00:33:14;69.63;;;40.17;;
9264;SDS011;4669;49.594;10.958;2022-12-18T00:38:18;67.00;;;40.77;;
9264;SDS011;4669;49.594;10.958;2022-12-18T00:43:20;71.20;;;40.00;;
9264;SDS011;4669;49.594;10.958;2022-12-18T00:48:22;68.27;;;39.80;;
9264;SDS011;4669;49.594;10.958;2022-12-18T00:53:25;68.23;;;38.03;;
9264;SDS011;4669;49.594;10.958;2022-12-18T00:58:27;72.30;;;39.80;;
9264;SDS011;4669;49.594;10.958;2022-12-18T01:03:29;64.63;;;39.50;;
9264;SDS011;4669;49.594;10.958;2022-12-18T01:08:33;63.10;;;38.63;;
9264;SDS011;4669;49.594;10.958;2022-12-18T01:13:35;64.43;;;36.63;;
9264;SDS011;4669;49.594;10.958;2022-12-18T01:18:37;62.33;;;35.83;;
9264;SDS011;4669;49.594;10.958;2022-12-18T01:23:50;59.73;;;36.97;;
9264;SDS011;4669;49.594;10.958;2022-12-18T01:28:53;66.90;;;38.43;;
9264;SDS011;4669;49.594;10.958;2022-12-18T01:33:57;59.80;;;35.70;;
9264;SDS011;4669;49.594;10.958;2022-12-18T01:39:04;69.20;;;39.00;;
9264;SDS011;4669;49.594;10.958;2022-12-18T01:49:42;60.77;;;36.20;;
9264;SDS011;4669;49.594;10.958;2022-12-18T01:54:45;59.17;;;35.90;;
9264;SDS011;4669;49.594;10.958;2022-12-18T01:59:49;67.60;;;39.27;;
9264;SDS011;4669;49.594;10.958;2022-12-18T02:04:53;70.97;;;40.07;;
9264;SDS011;4669;49.594;10.958;2022-12-18T02:10:00;62.50;;;37.93;;
9264;SDS011;4669;49.594;10.958;2022-12-18T02:15:09;69.93;;;40.73;;
9264;SDS011;4669;49.594;10.958;2022-12-18T02:20:18;62.10;;;38.33;;
9264;SDS011;4669;49.594;10.958;2022-12-18T02:25:28;68.10;;;40.27;;
9264;SDS011;4669;49.594;10.958;2022-12-18T02:30:44;75.27;;;42.97;;
9264;SDS011;4669;49.594;10.958;2022-12-18T02:35:48;69.97;;;41.30;;
9264;SDS011;4669;49.594;10.958;2022-12-18T02:40:54;74.83;;;40.60;;
9264;SDS011;4669;49.594;10.958;2022-12-18T02:45:59;72.93;;;39.07;;
9264;SDS011;4669;49.594;10.958;2022-12-18T02:51:24;68.43;;;37.67;;
9264;SDS011;4669;49.594;10.958;2022-12-18T02:56:33;72.23;;;39.00;;
9264;SDS011;4669;49.594;10.958;2022-12-18T03:01:43;73.47;;;40.23;;
9264;SDS011;4669;49.594;10.958;2022-12-18T03:06:53;75.83;;;39.50;;
9264;SDS011;4669;49.594;10.958;2022-12-18T03:12:01;74.07;;;40.37;;
9264;SDS011;4669;49.594;10.958;2022-12-18T03:17:27;82.83;;;42.20;;
9264;SDS011;4669;49.594;10.958;2022-12-18T03:22:32;78.97;;;41.50;;
9264;SDS011;4669;49.594;10.958;2022-12-18T03:27:38;82.40;;;42.97;;
9264;SDS011;4669;49.594;10.958;2022-12-18T03:32:48;87.60;;;45.40;;
9264;SDS011;4669;49.594;10.958;2022-12-18T03:37:56;77.13;;;41.27;;
9264;SDS011;4669;49.594;10.958;2022-12-18T03:43:16;73.73;;;40.07;;
9264;SDS011;4669;49.594;10.958;2022-12-18T03:48:25;68.50;;;39.93;;
9264;SDS011;4669;49.594;10.958;2022-12-18T03:53:38;65.73;;;37.33;;
9264;SDS011;4669;49.594;10.958;2022-12-18T03:58:49;64.57;;;37.00;;
9264;SDS011;4669;49.594;10.958;2022-12-18T04:04:01;58.20;;;33.60;;
9264;SDS011;4669;49.594;10.958;2022-12-18T04:09:08;51.73;;;31.20;;
9264;SDS011;4669;49.594;10.958;2022-12-18T04:14:14;51.03;;;30.37;;
9264;SDS011;4669;49.594;10.958;2022-12-18T04:19:18;51.53;;;29.20;;
9264;SDS011;4669;49.594;10.958;2022-12-18T04:24:22;49.23;;;28.33;;
9264;SDS011;4669;49.594;10.958;2022-12-18T04:29:36;48.77;;;27.30;;
9264;SDS011;4669;49.594;10.958;2022-12-18T04:34:40;46.77;;;27.70;;
9264;SDS011;4669;49.594;10.958;2022-12-18T04:39:42;44.90;;;27.17;;
9264;SDS011;4669;49.594;10.958;2022-12-18T04:44:52;46.97;;;27.97;;
9264;SDS011;4669;49.594;10.958;2022-12-18T04:49:55;45.60;;;28.07;;
9264;SDS011;4669;49.594;10.958;2022-12-18T04:54:57;45.37;;;28.50;;
9264;SDS011;4669;49.594;10.958;2022-12-18T05:00:00;46.27;;;27.33;;
9264;SDS011;4669;49.594;10.958;2022-12-18T05:05:03;52.87;;;28.93;;
9264;SDS011;4669;49.594;10.958;2022-12-18T05:10:06;52.20;;;31.73;;
9264;SDS011;4669;49.594;10.958;2022-12-18T05:15:09;63.63;;;38.33;;
9264;SDS011;4669;49.594;10.958;2022-12-18T05:20:12;50.03;;;29.97;;
9264;SDS011;4669;49.594;10.958;2022-12-18T05:25:15;49.13;;;29.63;;
9264;SDS011;4669;49.594;10.958;2022-12-18T05:30:17;47.23;;;28.27;;
9264;SDS011;4669;49.594;10.958;2022-12-18T05:35:22;52.60;;;30.53;;
9264;SDS011;4669;49.594;10.958;2022-12-18T05:40:23;60.97;;;34.90;;
9264;SDS011;4669;49.594;10.958;2022-12-18T05:45:25;51.23;;;28.30;;
9264;SDS011;4669;49.594;10.958;2022-12-18T05:50:29;45.37;;;27.20;;
9264;SDS011;4669;49.594;10.958;2022-12-18T05:55:35;44.00;;;26.63;;
9264;SDS011;4669;49.594;10.958;2022-12-18T06:00:39;44.43;;;26.63;;
9264;SDS011;4669;49.594;10.958;2022-12-18T06:05:46;42.50;;;26.77;;
9264;SDS011;4669;49.594;10.958;2022-12-18T06:10:51;43.73;;;26.20;;
9264;SDS011;4669;49.594;10.958;2022-12-18T06:15:53;40.77;;;25.93;;
9264;SDS011;4669;49.594;10.958;2022-12-18T06:20:57;41.90;;;25.57;;
9264;SDS011;4669;49.594;10.958;2022-12-18T06:26:03;42.90;;;26.90;;
9264;SDS011;4669;49.594;10.958;2022-12-18T06:31:06;41.93;;;25.87;;
9264;SDS011;4669;49.594;10.958;2022-12-18T06:36:11;42.53;;;26.93;;
9264;SDS011;4669;49.594;10.958;2022-12-18T06:41:14;44.00;;;26.67;;
9264;SDS011;4669;49.594;10.958;2022-12-18T06:46:18;47.27;;;29.00;;
9264;SDS011;4669;49.594;10.958;2022-12-18T06:51:22;57.47;;;31.23;;
9264;SDS011;4669;49.594;10.958;2022-12-18T06:56:25;47.30;;;27.47;;
9264;SDS011;4669;49.594;10.958;2022-12-18T07:01:27;44.43;;;27.73;;
9264;SDS011;4669;49.594;10.958;2022-12-18T07:06:30;43.73;;;26.63;;
9264;SDS011;4669;49.594;10.958;2022-12-18T07:11:32;50.37;;;29.07;;
9264;SDS011;4669;49.594;10.958;2022-12-18T07:16:35;46.80;;;28.80;;
9264;SDS011;4669;49.594;10.958;2022-12-18T07:21:38;58.97;;;32.60;;
9264;SDS011;4669;49.594;10.958;2022-12-18T07:26:40;45.90;;;27.73;;
9264;SDS011;4669;49.594;10.958;2022-12-18T07:31:42;44.50;;;27.83;;
9264;SDS011;4669;49.594;10.958;2022-12-18T07:36:46;43.70;;;27.40;;
9264;SDS011;4669;49.594;10.958;2022-12-18T07:41:48;44.23;;;27.13;;
9264;SDS011;4669;49.594;10.958;2022-12-18T07:47:10;43.53;;;26.73;;
9264;SDS011;4669;49.594;10.958;2022-12-18T07:52:13;45.67;;;26.87;;
9264;SDS011;4669;49.594;10.958;2022-12-18T07:57:15;44.47;;;26.83;;
9264;SDS011;4669;49.594;10.958;2022-12-18T08:02:17;43.80;;;27.20;;
9264;SDS011;4669;49.594;10.958;2022-12-18T08:07:20;44.20;;;27.10;;
9264;SDS011;4669;49.594;10.958;2022-12-18T08:12:22;42.47;;;25.53;;
9264;SDS011;4669;49.594;10.958;2022-12-18T08:17:24;44.80;;;27.47;;
9264;SDS011;4669;49.594;10.958;2022-12-18T08:22:28;43.73;;;28.23;;
9264;SDS011;4669;49.594;10.958;2022-12-18T08:27:30;47.63;;;28.40;;
9264;SDS011;4669;49.594;10.958;2022-12-18T08:32:31;48.80;;;28.20;;
9264;SDS011;4669;49.594;10.958;2022-12-18T08:37:35;52.20;;;30.40;;
9264;SDS011;4669;49.594;10.958;2022-12-18T08:42:37;44.43;;;27.63;;
9264;SDS011;4669;49.594;10.958;2022-12-18T08:47:56;41.83;;;26.90;;
9264;SDS011;4669;49.594;10.958;2022-12-18T08:53:00;42.47;;;26.30;;
9264;SDS011;4669;49.594;10.958;2022-12-18T08:58:02;49.23;;;28.20;;
9264;SDS011;4669;49.594;10.958;2022-12-18T09:03:04;48.57;;;28.83;;
9264;SDS011;4669;49.594;10.958;2022-12-18T09:08:08;42.73;;;26.87;;
9264;SDS011;4669;49.594;10.958;2022-12-18T09:13:10;42.20;;;26.87;;
9264;SDS011;4669;49.594;10.958;2022-12-18T09:18:13;44.90;;;26.20;;
9264;SDS011;4669;49.594;10.958;2022-12-18T09:23:18;42.10;;;25.97;;
9264;SDS011;4669;49.594;10.958;2022-12-18T09:28:20;47.20;;;27.50;;
9264;SDS011;4669;49.594;10.958;2022-12-18T09:33:24;46.33;;;28.43;;
9264;SDS011;4669;49.594;10.958;2022-12-18T09:38:28;47.90;;;29.00;;
9264;SDS011;4669;49.594;10.958;2022-12-18T09:43:42;41.67;;;26.23;;
9264;SDS011;4669;49.594;10.958;2022-12-18T09:48:48;44.30;;;27.57;;
9264;SDS011;4669;49.594;10.958;2022-12-18T09:53:55;43.83;;;24.93;;
9264;SDS011;4669;49.594;10.958;2022-12-18T09:59:01;44.10;;;26.33;;
9264;SDS011;4669;49.594;10.958;2022-12-18T10:04:04;41.37;;;24.90;;
9264;SDS011;4669;49.594;10.958;2022-12-18T10:09:12;39.60;;;25.20;;
9264;SDS011;4669;49.594;10.958;2022-12-18T10:14:20;39.13;;;25.77;;
9264;SDS011;4669;49.594;10.958;2022-12-18T10:19:39;40.30;;;25.50;;
9264;SDS011;4669;49.594;10.958;2022-12-18T10:24:52;37.30;;;23.83;;
9264;SDS011;4669;49.594;10.958;2022-12-18T10:30:00;40.17;;;25.80;;
9264;SDS011;4669;49.594;10.958;2022-12-18T10:35:07;38.83;;;25.40;;
9264;SDS011;4669;49.594;10.958;2022-12-18T10:40:19;41.07;;;25.23;;
9264;SDS011;4669;49.594;10.958;2022-12-18T10:45:21;42.30;;;24.80;;
9264;SDS011;4669;49.594;10.958;2022-12-18T10:50:24;35.17;;;23.80;;
9264;SDS011;4669;49.594;10.958;2022-12-18T10:55:31;37.87;;;24.10;;
9264;SDS011;4669;49.594;10.958;2022-12-18T11:00:35;38.13;;;23.83;;
9264;SDS011;4669;49.594;10.958;2022-12-18T11:05:38;38.60;;;25.70;;
9264;SDS011;4669;49.594;10.958;2022-12-18T11:10:41;37.40;;;24.13;;
9264;SDS011;4669;49.594;10.958;2022-12-18T11:15:48;36.27;;;23.03;;
9264;SDS011;4669;49.594;10.958;2022-12-18T11:20:52;36.67;;;23.73;;
9264;SDS011;4669;49.594;10.958;2022-12-18T11:25:58;36.27;;;24.33;;
9264;SDS011;4669;49.594;10.958;2022-12-18T11:31:09;34.87;;;22.83;;
9264;SDS011;4669;49.594;10.958;2022-12-18T11:36:24;35.43;;;23.73;;
9264;SDS011;4669;49.594;10.958;2022-12-18T11:41:32;34.37;;;23.33;;
9264;SDS011;4669;49.594;10.958;2022-12-18T11:46:59;37.30;;;24.20;;
9264;SDS011;4669;49.594;10.958;2022-12-18T11:52:06;37.87;;;23.77;;
9264;SDS011;4669;49.594;10.958;2022-12-18T11:57:19;32.87;;;21.93;;
9264;SDS011;4669;49.594;10.958;2022-12-18T12:02:39;38.57;;;23.13;;
9264;SDS011;4669;49.594;10.958;2022-12-18T12:07:56;35.40;;;24.10;;
9264;SDS011;4669;49.594;10.958;2022-12-18T12:18:37;38.10;;;25.07;;
9264;SDS011;4669;49.594;10.958;2022-12-18T12:23:49;40.20;;;24.47;;
9264;SDS011;4669;49.594;10.958;2022-12-18T12:29:04;36.50;;;24.63;;
9264;SDS011;4669;49.594;10.958;2022-12-18T12:34:21;41.30;;;26.17;;
9264;SDS011;4669;49.594;10.958;2022-12-18T12:39:27;40.80;;;25.63;;
9264;SDS011;4669;49.594;10.958;2022-12-18T12:44:37;42.43;;;25.87;;
9264;SDS011;4669;49.594;10.958;2022-12-18T12:49:44;39.00;;;25.03;;
9264;SDS011;4669;49.594;10.958;2022-12-18T12:54:48;40.30;;;24.30;;
9264;SDS011;4669;49.594;10.958;2022-12-18T12:59:56;39.77;;;25.20;;
9264;SDS011;4669;49.594;10.958;2022-12-18T13:05:04;40.47;;;25.27;;
9264;SDS011;4669;49.594;10.958;2022-12-18T13:10:23;36.10;;;24.07;;
9264;SDS011;4669;49.594;10.958;2022-12-18T13:15:36;38.87;;;24.97;;
9264;SDS011;4669;49.594;10.958;2022-12-18T13:20:41;38.70;;;24.43;;
9264;SDS011;4669;49.594;10.958;2022-12-18T13:25:45;34.97;;;23.90;;
9264;SDS011;4669;49.594;10.958;2022-12-18T13:30:52;38.70;;;24.87;;
9264;SDS011;4669;49.594;10.958;2022-12-18T13:36:00;38.13;;;25.17;;
9264;SDS011;4669;49.594;10.958;2022-12-18T13:41:10;39.87;;;25.93;;
9264;SDS011;4669;49.594;10.958;2022-12-18T13:46:27;37.47;;;25.57;;
9264;SDS011;4669;49.594;10.958;2022-12-18T13:51:31;41.83;;;26.90;;
9264;SDS011;4669;49.594;10.958;2022-12-18T13:56:42;38.53;;;26.63;;
9264;SDS011;4669;49.594;10.958;2022-12-18T14:01:47;38.33;;;25.80;;
9264;SDS011;4669;49.594;10.958;2022-12-18T14:06:53;37.67;;;25.00;;
9264;SDS011;4669;49.594;10.958;2022-12-18T14:11:57;37.83;;;25.27;;
9264;SDS011;4669;49.594;10.958;2022-12-18T14:17:19;33.57;;;23.33;;
9264;SDS011;4669;49.594;10.958;2022-12-18T14:22:22;35.27;;;22.13;;
9264;SDS011;4669;49.594;10.958;2022-12-18T14:27:27;33.23;;;22.00;;
9264;SDS011;4669;49.594;10.958;2022-12-18T14:32:31;31.00;;;20.83;;
9264;SDS011;4669;49.594;10.958;2022-12-18T14:37:33;32.27;;;21.90;;
9264;SDS011;4669;49.594;10.958;2022-12-18T14:42:35;28.47;;;19.43;;
9264;SDS011;4669;49.594;10.958;2022-12-18T14:47:39;28.20;;;19.43;;
9264;SDS011;4669;49.594;10.958;2022-12-18T14:52:44;33.10;;;22.23;;
9264;SDS011;4669;49.594;10.958;2022-12-18T14:57:48;34.43;;;23.50;;
9264;SDS011;4669;49.594;10.958;2022-12-18T15:02:55;32.23;;;21.63;;
9264;SDS011;4669;49.594;10.958;2022-12-18T15:07:59;31.10;;;19.97;;
9264;SDS011;4669;49.594;10.958;2022-12-18T15:13:07;29.97;;;19.57;;
9264;SDS011;4669;49.594;10.958;2022-12-18T15:18:13;31.70;;;20.73;;
9264;SDS011;4669;49.594;10.958;2022-12-18T15:23:18;35.93;;;23.27;;
9264;SDS011;4669;49.594;10.958;2022-12-18T15:28:22;37.43;;;24.37;;
9264;SDS011;4669;49.594;10.958;2022-12-18T15:33:30;35.60;;;24.20;;
9264;SDS011;4669;49.594;10.958;2022-12-18T15:38:34;38.73;;;25.50;;
9264;SDS011;4669;49.594;10.958;2022-12-18T15:43:37;38.63;;;24.47;;
9264;SDS011;4669;49.594;10.958;2022-12-18T15:48:41;39.27;;;25.90;;
9264;SDS011;4669;49.594;10.958;2022-12-18T15:53:44;41.97;;;27.33;;
9264;SDS011;4669;49.594;10.958;2022-12-18T15:58:47;38.33;;;24.63;;
9264;SDS011;4669;49.594;10.958;2022-12-18T16:03:50;37.30;;;24.63;;
9264;SDS011;4669;49.594;10.958;2022-12-18T16:08:53;35.67;;;22.57;;
9264;SDS011;4669;49.594;10.958;2022-12-18T16:13:55;37.60;;;25.40;;
9264;SDS011;4669;49.594;10.958;2022-12-18T16:18:58;37.03;;;24.53;;
9264;SDS011;4669;49.594;10.958;2022-12-18T16:24:00;36.83;;;24.73;;
9264;SDS011;4669;49.594;10.958;2022-12-18T16:29:02;37.13;;;24.77;;
9264;SDS011;4669;49.594;10.958;2022-12-18T16:34:13;35.07;;;24.80;;
9264;SDS011;4669;49.594;10.958;2022-12-18T16:39:19;42.40;;;27.90;;
9264;SDS011;4669;49.594;10.958;2022-12-18T16:44:21;37.10;;;26.60;;
9264;SDS011;4669;49.594;10.958;2022-12-18T16:49:24;41.83;;;28.90;;
9264;SDS011;4669;49.594;10.958;2022-12-18T16:54:27;43.97;;;30.13;;
9264;SDS011;4669;49.594;10.958;2022-12-18T16:59:30;44.87;;;29.73;;
9264;SDS011;4669;49.594;10.958;2022-12-18T17:04:33;43.90;;;29.67;;
9264;SDS011;4669;49.594;10.958;2022-12-18T17:09:36;46.83;;;30.83;;
9264;SDS011;4669;49.594;10.958;2022-12-18T17:14:38;46.37;;;30.67;;
9264;SDS011;4669;49.594;10.958;2022-12-18T17:19:42;43.70;;;29.83;;
9264;SDS011;4669;49.594;10.958;2022-12-18T17:24:44;44.20;;;29.30;;
9264;SDS011;4669;49.594;10.958;2022-12-18T17:29:46;49.20;;;30.47;;
9264;SDS011;4669;49.594;10.958;2022-12-18T17:34:50;46.30;;;29.33;;
9264;SDS011;4669;49.594;10.958;2022-12-18T17:39:52;54.60;;;32.90;;
9264;SDS011;4669;49.594;10.958;2022-12-18T17:44:54;63.90;;;36.57;;
9264;SDS011;4669;49.594;10.958;2022-12-18T17:49:57;59.00;;;35.90;;
9264;SDS011;4669;49.594;10.958;2022-12-18T17:54:59;43.40;;;27.93;;
9264;SDS011;4669;49.594;10.958;2022-12-18T18:00:02;39.57;;;27.50;;
9264;SDS011;4669;49.594;10.958;2022-12-18T18:05:11;49.97;;;32.73;;
9264;SDS011;4669;49.594;10.958;2022-12-18T18:10:13;48.63;;;32.07;;
9264;SDS011;4669;49.594;10.958;2022-12-18T18:15:15;46.27;;;30.60;;
9264;SDS011;4669;49.594;10.958;2022-12-18T18:20:19;52.13;;;32.30;;
9264;SDS011;4669;49.594;10.958;2022-12-18T18:25:21;43.13;;;29.63;;
9264;SDS011;4669;49.594;10.958;2022-12-18T18:30:23;48.90;;;31.83;;
9264;SDS011;4669;49.594;10.958;2022-12-18T18:35:26;46.80;;;31.30;;
9264;SDS011;4669;49.594;10.958;2022-12-18T18:40:28;54.03;;;33.60;;
9264;SDS011;4669;49.594;10.958;2022-12-18T18:45:30;49.80;;;32.40;;
9264;SDS011;4669;49.594;10.958;2022-12-18T18:50:33;47.93;;;32.13;;
9264;SDS011;4669;49.594;10.958;2022-12-18T18:55:35;44.83;;;29.07;;
9264;SDS011;4669;49.594;10.958;2022-12-18T19:00:37;42.77;;;29.13;;
9264;SDS011;4669;49.594;10.958;2022-12-18T19:05:41;40.23;;;27.40;;
9264;SDS011;4669;49.594;10.958;2022-12-18T19:10:43;40.47;;;28.53;;
9264;SDS011;4669;49.594;10.958;2022-12-18T19:15:45;39.33;;;27.30;;
9264;SDS011;4669;49.594;10.958;2022-12-18T19:20:55;41.27;;;27.23;;
9264;SDS011;4669;49.594;10.958;2022-12-18T19:25:59;37.23;;;26.40;;
9264;SDS011;4669;49.594;10.958;2022-12-18T19:31:03;41.33;;;26.67;;
9264;SDS011;4669;49.594;10.958;2022-12-18T19:36:13;38.00;;;26.93;;
9264;SDS011;4669;49.594;10.958;2022-12-18T19:41:20;43.67;;;27.73;;
9264;SDS011;4669;49.594;10.958;2022-12-18T19:46:22;38.80;;;26.27;;
9264;SDS011;4669;49.594;10.958;2022-12-18T19:51:27;39.53;;;27.43;;
9264;SDS011;4669;49.594;10.958;2022-12-18T19:56:31;38.00;;;26.97;;
9264;SDS011;4669;49.594;10.958;2022-12-18T20:01:34;40.13;;;28.43;;
9264;SDS011;4669;49.594;10.958;2022-12-18T20:06:44;38.13;;;26.80;;
9264;SDS011;4669;49.594;10.958;2022-12-18T20:11:48;39.23;;;26.90;;
9264;SDS011;4669;49.594;10.958;2022-12-18T20:16:50;36.40;;;26.23;;
9264;SDS011;4669;49.594;10.958;2022-12-18T20:21:54;36.37;;;25.67;;
